sensor_id;sensor_type;location;lat;lon;timestamp;temperature;humidity
51661;DHT22;37741;49.748;8.490;2024-02-21T00:02:06;9.00;87.70
51661;DHT22;37741;49.748;8.490;2024-02-21T00:04:31;9.00;87.70
51661;DHT22;37741;49.748;8.490;2024-02-21T00:06:57;9.00;87.80
51661;DHT22;37741;49.748;8.490;2024-02-21T00:09:23;9.00;87.80
51661;DHT22;37741;49.748;8.490;2024-02-21T00:11:48;9.00;87.80
51661;DHT22;37741;49.748;8.490;2024-02-21T00:14:14;9.00;87.80
51661;DHT22;37741;49.748;8.490;2024-02-21T00:16:40;9.00;87.80
51661;DHT22;37741;49.748;8.490;2024-02-21T00:19:05;8.90;87.80
51661;DHT22;37741;49.748;8.490;2024-02-21T00:21:31;9.00;87.80
51661;DHT22;37741;49.748;8.490;2024-02-21T00:23:57;9.00;87.70
51661;DHT22;37741;49.748;8.490;2024-02-21T00:26:22;8.90;87.80
51661;DHT22;37741;49.748;8.490;2024-02-21T00:28:48;8.90;87.80
51661;DHT22;37741;49.748;8.490;2024-02-21T00:31:14;9.00;88.10
51661;DHT22;37741;49.748;8.490;2024-02-21T00:33:39;8.90;88.00
51661;DHT22;37741;49.748;8.490;2024-02-21T00:36:05;9.00;88.00
51661;DHT22;37741;49.748;8.490;2024-02-21T00:38:30;8.90;87.90
51661;DHT22;37741;49.748;8.490;2024-02-21T00:40:56;8.90;87.90
51661;DHT22;37741;49.748;8.490;2024-02-21T00:43:22;8.90;88.00
51661;DHT22;37741;49.748;8.490;2024-02-21T00:45:49;8.90;88.10
51661;DHT22;37741;49.748;8.490;2024-02-21T00:48:15;8.90;88.10
51661;DHT22;37741;49.748;8.490;2024-02-21T00:50:41;8.90;88.10
51661;DHT22;37741;49.748;8.490;2024-02-21T00:53:07;8.90;88.10
51661;DHT22;37741;49.748;8.490;2024-02-21T00:55:33;8.90;88.10
51661;DHT22;37741;49.748;8.490;2024-02-21T00:57:59;8.90;88.80
51661;DHT22;37741;49.748;8.490;2024-02-21T01:00:25;8.90;88.10
51661;DHT22;37741;49.748;8.490;2024-02-21T01:02:50;8.90;88.10
51661;DHT22;37741;49.748;8.490;2024-02-21T01:05:16;8.90;88.20
51661;DHT22;37741;49.748;8.490;2024-02-21T01:07:42;8.90;88.10
51661;DHT22;37741;49.748;8.490;2024-02-21T01:10:08;8.90;88.10
51661;DHT22;37741;49.748;8.490;2024-02-21T01:12:33;8.90;88.20
51661;DHT22;37741;49.748;8.490;2024-02-21T01:14:59;8.90;88.20
51661;DHT22;37741;49.748;8.490;2024-02-21T01:17:25;8.90;88.20
51661;DHT22;37741;49.748;8.490;2024-02-21T01:19:51;8.90;88.20
51661;DHT22;37741;49.748;8.490;2024-02-21T01:22:17;8.90;88.20
51661;DHT22;37741;49.748;8.490;2024-02-21T01:24:43;8.80;88.10
51661;DHT22;37741;49.748;8.490;2024-02-21T01:27:08;8.80;88.10
51661;DHT22;37741;49.748;8.490;2024-02-21T01:29:35;8.80;88.10
51661;DHT22;37741;49.748;8.490;2024-02-21T01:32:00;8.90;88.20
51661;DHT22;37741;49.748;8.490;2024-02-21T01:34:26;8.80;88.20
51661;DHT22;37741;49.748;8.490;2024-02-21T01:36:52;8.80;88.20
51661;DHT22;37741;49.748;8.490;2024-02-21T01:39:17;8.80;88.20
51661;DHT22;37741;49.748;8.490;2024-02-21T01:41:43;8.80;88.30
51661;DHT22;37741;49.748;8.490;2024-02-21T01:44:08;8.80;88.20
51661;DHT22;37741;49.748;8.490;2024-02-21T01:46:34;8.80;88.30
51661;DHT22;37741;49.748;8.490;2024-02-21T01:49:00;8.80;88.30
51661;DHT22;37741;49.748;8.490;2024-02-21T01:51:27;8.80;88.30
51661;DHT22;37741;49.748;8.490;2024-02-21T01:53:53;8.80;88.40
51661;DHT22;37741;49.748;8.490;2024-02-21T01:56:20;8.80;88.50
51661;DHT22;37741;49.748;8.490;2024-02-21T01:58:47;8.80;88.50
51661;DHT22;37741;49.748;8.490;2024-02-21T02:01:13;8.70;88.40
51661;DHT22;37741;49.748;8.490;2024-02-21T02:03:39;8.70;88.50
51661;DHT22;37741;49.748;8.490;2024-02-21T02:06:05;8.70;88.40
51661;DHT22;37741;49.748;8.490;2024-02-21T02:08:34;8.70;88.50
51661;DHT22;37741;49.748;8.490;2024-02-21T02:11:01;8.70;88.50
51661;DHT22;37741;49.748;8.490;2024-02-21T02:13:26;8.70;88.60
51661;DHT22;37741;49.748;8.490;2024-02-21T02:15:52;8.70;88.50
51661;DHT22;37741;49.748;8.490;2024-02-21T02:18:19;8.70;88.60
51661;DHT22;37741;49.748;8.490;2024-02-21T02:20:45;8.70;88.60
51661;DHT22;37741;49.748;8.490;2024-02-21T02:23:30;8.70;88.50
51661;DHT22;37741;49.748;8.490;2024-02-21T02:25:57;8.70;88.60
51661;DHT22;37741;49.748;8.490;2024-02-21T02:28:23;8.70;88.60
51661;DHT22;37741;49.748;8.490;2024-02-21T02:30:49;8.60;88.50
51661;DHT22;37741;49.748;8.490;2024-02-21T02:33:14;8.60;88.50
51661;DHT22;37741;49.748;8.490;2024-02-21T02:35:40;8.60;88.60
51661;DHT22;37741;49.748;8.490;2024-02-21T02:38:06;8.60;88.60
51661;DHT22;37741;49.748;8.490;2024-02-21T02:40:34;8.60;89.20
51661;DHT22;37741;49.748;8.490;2024-02-21T02:43:00;8.60;88.60
51661;DHT22;37741;49.748;8.490;2024-02-21T02:45:26;8.60;88.60
51661;DHT22;37741;49.748;8.490;2024-02-21T02:47:55;8.60;88.60
51661;DHT22;37741;49.748;8.490;2024-02-21T02:50:23;8.60;88.70
51661;DHT22;37741;49.748;8.490;2024-02-21T02:52:48;8.60;88.70
51661;DHT22;37741;49.748;8.490;2024-02-21T02:55:14;8.60;88.70
51661;DHT22;37741;49.748;8.490;2024-02-21T02:57:40;8.60;88.80
51661;DHT22;37741;49.748;8.490;2024-02-21T03:00:08;8.60;88.80
51661;DHT22;37741;49.748;8.490;2024-02-21T03:02:35;8.60;88.80
51661;DHT22;37741;49.748;8.490;2024-02-21T03:05:01;8.50;88.80
51661;DHT22;37741;49.748;8.490;2024-02-21T03:07:26;8.50;88.80
51661;DHT22;37741;49.748;8.490;2024-02-21T03:09:52;8.50;88.80
51661;DHT22;37741;49.748;8.490;2024-02-21T03:12:18;8.60;89.50
51661;DHT22;37741;49.748;8.490;2024-02-21T03:14:50;8.50;88.80
51661;DHT22;37741;49.748;8.490;2024-02-21T03:17:16;8.50;88.80
51661;DHT22;37741;49.748;8.490;2024-02-21T03:19:41;8.50;88.80
51661;DHT22;37741;49.748;8.490;2024-02-21T03:22:07;8.50;88.80
51661;DHT22;37741;49.748;8.490;2024-02-21T03:24:33;8.60;88.90
51661;DHT22;37741;49.748;8.490;2024-02-21T03:26:59;8.50;88.80
51661;DHT22;37741;49.748;8.490;2024-02-21T03:29:25;8.50;88.80
51661;DHT22;37741;49.748;8.490;2024-02-21T03:31:50;8.50;88.90
51661;DHT22;37741;49.748;8.490;2024-02-21T03:34:16;8.50;88.90
51661;DHT22;37741;49.748;8.490;2024-02-21T03:36:41;8.50;88.90
51661;DHT22;37741;49.748;8.490;2024-02-21T03:39:07;8.50;89.00
51661;DHT22;37741;49.748;8.490;2024-02-21T03:41:34;8.50;89.00
51661;DHT22;37741;49.748;8.490;2024-02-21T03:44:00;8.50;89.00
51661;DHT22;37741;49.748;8.490;2024-02-21T03:46:27;8.50;89.00
51661;DHT22;37741;49.748;8.490;2024-02-21T03:48:53;8.50;89.00
51661;DHT22;37741;49.748;8.490;2024-02-21T03:51:18;8.50;89.10
51661;DHT22;37741;49.748;8.490;2024-02-21T03:53:44;8.50;89.10
51661;DHT22;37741;49.748;8.490;2024-02-21T03:56:10;8.50;89.10
51661;DHT22;37741;49.748;8.490;2024-02-21T03:58:35;8.40;89.00
51661;DHT22;37741;49.748;8.490;2024-02-21T04:01:02;8.50;89.10
51661;DHT22;37741;49.748;8.490;2024-02-21T04:03:28;8.40;89.10
51661;DHT22;37741;49.748;8.490;2024-02-21T04:05:53;8.40;89.10
51661;DHT22;37741;49.748;8.490;2024-02-21T04:08:19;8.40;89.20
51661;DHT22;37741;49.748;8.490;2024-02-21T04:10:45;8.50;89.30
51661;DHT22;37741;49.748;8.490;2024-02-21T04:13:10;8.40;89.20
51661;DHT22;37741;49.748;8.490;2024-02-21T04:15:36;8.40;89.20
51661;DHT22;37741;49.748;8.490;2024-02-21T04:18:02;8.40;89.20
51661;DHT22;37741;49.748;8.490;2024-02-21T04:20:28;8.40;89.20
51661;DHT22;37741;49.748;8.490;2024-02-21T04:22:54;8.40;89.20
51661;DHT22;37741;49.748;8.490;2024-02-21T04:25:20;8.40;89.20
51661;DHT22;37741;49.748;8.490;2024-02-21T04:27:46;8.40;89.20
51661;DHT22;37741;49.748;8.490;2024-02-21T04:30:12;8.40;89.20
51661;DHT22;37741;49.748;8.490;2024-02-21T04:32:38;8.40;89.30
51661;DHT22;37741;49.748;8.490;2024-02-21T04:35:04;8.40;89.30
51661;DHT22;37741;49.748;8.490;2024-02-21T04:37:29;8.40;89.20
51661;DHT22;37741;49.748;8.490;2024-02-21T04:39:56;8.40;89.20
51661;DHT22;37741;49.748;8.490;2024-02-21T04:42:22;8.40;89.20
51661;DHT22;37741;49.748;8.490;2024-02-21T04:44:47;8.40;89.30
51661;DHT22;37741;49.748;8.490;2024-02-21T04:47:13;8.30;89.30
51661;DHT22;37741;49.748;8.490;2024-02-21T04:49:39;8.30;89.30
51661;DHT22;37741;49.748;8.490;2024-02-21T04:52:04;8.40;89.30
51661;DHT22;37741;49.748;8.490;2024-02-21T04:54:30;8.40;89.30
51661;DHT22;37741;49.748;8.490;2024-02-21T04:56:56;8.40;89.30
51661;DHT22;37741;49.748;8.490;2024-02-21T04:59:21;8.30;89.30
51661;DHT22;37741;49.748;8.490;2024-02-21T05:01:47;8.30;89.30
51661;DHT22;37741;49.748;8.490;2024-02-21T05:04:13;8.30;89.30
51661;DHT22;37741;49.748;8.490;2024-02-21T05:06:39;8.30;89.30
51661;DHT22;37741;49.748;8.490;2024-02-21T05:09:06;8.30;89.30
51661;DHT22;37741;49.748;8.490;2024-02-21T05:11:32;8.30;89.30
51661;DHT22;37741;49.748;8.490;2024-02-21T05:13:57;8.30;89.30
51661;DHT22;37741;49.748;8.490;2024-02-21T05:16:23;8.30;89.40
51661;DHT22;37741;49.748;8.490;2024-02-21T05:18:49;8.30;89.40
51661;DHT22;37741;49.748;8.490;2024-02-21T05:21:14;8.30;89.40
51661;DHT22;37741;49.748;8.490;2024-02-21T05:23:40;8.20;89.40
51661;DHT22;37741;49.748;8.490;2024-02-21T05:26:06;8.30;89.50
51661;DHT22;37741;49.748;8.490;2024-02-21T05:28:32;8.20;89.50
51661;DHT22;37741;49.748;8.490;2024-02-21T05:30:58;8.20;90.00
51661;DHT22;37741;49.748;8.490;2024-02-21T05:33:24;8.30;89.50
51661;DHT22;37741;49.748;8.490;2024-02-21T05:35:50;8.20;89.50
51661;DHT22;37741;49.748;8.490;2024-02-21T05:38:16;8.20;89.50
51661;DHT22;37741;49.748;8.490;2024-02-21T05:40:43;8.20;89.50
51661;DHT22;37741;49.748;8.490;2024-02-21T05:43:09;8.20;89.60
51661;DHT22;37741;49.748;8.490;2024-02-21T05:45:35;8.20;89.60
51661;DHT22;37741;49.748;8.490;2024-02-21T05:48:03;8.20;89.60
51661;DHT22;37741;49.748;8.490;2024-02-21T05:50:29;8.20;89.60
51661;DHT22;37741;49.748;8.490;2024-02-21T05:52:56;8.20;89.50
51661;DHT22;37741;49.748;8.490;2024-02-21T05:58:07;8.20;89.50
51661;DHT22;37741;49.748;8.490;2024-02-21T06:00:37;8.20;89.50
51661;DHT22;37741;49.748;8.490;2024-02-21T06:03:03;8.20;89.50
51661;DHT22;37741;49.748;8.490;2024-02-21T06:05:29;8.20;89.50
51661;DHT22;37741;49.748;8.490;2024-02-21T06:07:54;8.20;89.50
51661;DHT22;37741;49.748;8.490;2024-02-21T06:10:20;8.20;89.50
51661;DHT22;37741;49.748;8.490;2024-02-21T06:12:45;8.20;89.50
51661;DHT22;37741;49.748;8.490;2024-02-21T06:15:11;8.20;89.50
51661;DHT22;37741;49.748;8.490;2024-02-21T06:17:37;8.20;89.50
51661;DHT22;37741;49.748;8.490;2024-02-21T06:20:02;8.20;89.50
51661;DHT22;37741;49.748;8.490;2024-02-21T06:22:29;8.20;89.50
51661;DHT22;37741;49.748;8.490;2024-02-21T06:24:55;8.20;89.50
51661;DHT22;37741;49.748;8.490;2024-02-21T06:27:21;8.10;89.50
51661;DHT22;37741;49.748;8.490;2024-02-21T06:29:46;8.20;89.50
51661;DHT22;37741;49.748;8.490;2024-02-21T06:32:12;8.10;89.40
51661;DHT22;37741;49.748;8.490;2024-02-21T06:34:38;8.20;89.50
51661;DHT22;37741;49.748;8.490;2024-02-21T06:37:03;8.10;89.50
51661;DHT22;37741;49.748;8.490;2024-02-21T06:39:29;8.10;89.40
51661;DHT22;37741;49.748;8.490;2024-02-21T06:41:55;8.10;89.50
51661;DHT22;37741;49.748;8.490;2024-02-21T06:44:21;8.10;89.50
51661;DHT22;37741;49.748;8.490;2024-02-21T06:46:47;8.10;89.50
51661;DHT22;37741;49.748;8.490;2024-02-21T06:49:13;8.10;89.50
51661;DHT22;37741;49.748;8.490;2024-02-21T06:51:44;8.10;89.50
51661;DHT22;37741;49.748;8.490;2024-02-21T06:54:10;8.10;89.50
51661;DHT22;37741;49.748;8.490;2024-02-21T06:56:36;8.10;89.50
51661;DHT22;37741;49.748;8.490;2024-02-21T06:59:02;8.00;89.50
51661;DHT22;37741;49.748;8.490;2024-02-21T07:01:29;8.00;89.40
51661;DHT22;37741;49.748;8.490;2024-02-21T07:03:55;8.10;89.50
51661;DHT22;37741;49.748;8.490;2024-02-21T07:06:20;8.10;89.50
51661;DHT22;37741;49.748;8.490;2024-02-21T07:08:46;8.00;89.50
51661;DHT22;37741;49.748;8.490;2024-02-21T07:11:11;8.00;89.50
51661;DHT22;37741;49.748;8.490;2024-02-21T07:13:37;8.00;89.50
51661;DHT22;37741;49.748;8.490;2024-02-21T07:16:03;8.00;89.60
51661;DHT22;37741;49.748;8.490;2024-02-21T07:18:28;8.00;89.60
51661;DHT22;37741;49.748;8.490;2024-02-21T07:20:54;8.00;89.60
51661;DHT22;37741;49.748;8.490;2024-02-21T07:23:20;7.90;89.60
51661;DHT22;37741;49.748;8.490;2024-02-21T07:25:46;8.00;89.60
51661;DHT22;37741;49.748;8.490;2024-02-21T07:28:12;8.00;89.60
51661;DHT22;37741;49.748;8.490;2024-02-21T07:30:39;7.90;89.60
51661;DHT22;37741;49.748;8.490;2024-02-21T07:33:04;8.00;89.70
51661;DHT22;37741;49.748;8.490;2024-02-21T07:35:30;7.90;89.60
51661;DHT22;37741;49.748;8.490;2024-02-21T07:37:55;7.90;89.60
51661;DHT22;37741;49.748;8.490;2024-02-21T07:40:21;7.90;89.60
51661;DHT22;37741;49.748;8.490;2024-02-21T07:42:47;7.90;89.70
51661;DHT22;37741;49.748;8.490;2024-02-21T07:45:13;7.90;89.60
51661;DHT22;37741;49.748;8.490;2024-02-21T07:47:38;7.90;89.70
51661;DHT22;37741;49.748;8.490;2024-02-21T07:50:04;7.90;89.60
51661;DHT22;37741;49.748;8.490;2024-02-21T07:52:30;7.90;89.60
51661;DHT22;37741;49.748;8.490;2024-02-21T07:54:55;7.90;89.60
51661;DHT22;37741;49.748;8.490;2024-02-21T07:57:21;7.90;89.70
51661;DHT22;37741;49.748;8.490;2024-02-21T07:59:47;7.90;89.60
51661;DHT22;37741;49.748;8.490;2024-02-21T08:02:16;7.80;89.70
51661;DHT22;37741;49.748;8.490;2024-02-21T08:04:42;7.80;89.60
51661;DHT22;37741;49.748;8.490;2024-02-21T08:07:07;7.90;89.70
51661;DHT22;37741;49.748;8.490;2024-02-21T08:09:33;7.80;89.70
51661;DHT22;37741;49.748;8.490;2024-02-21T08:11:59;7.90;89.80
51661;DHT22;37741;49.748;8.490;2024-02-21T08:14:25;7.90;89.80
51661;DHT22;37741;49.748;8.490;2024-02-21T08:16:51;7.80;89.80
51661;DHT22;37741;49.748;8.490;2024-02-21T08:19:19;7.80;89.80
51661;DHT22;37741;49.748;8.490;2024-02-21T08:21:44;7.80;89.80
51661;DHT22;37741;49.748;8.490;2024-02-21T08:24:15;7.80;89.80
51661;DHT22;37741;49.748;8.490;2024-02-21T08:26:41;7.90;89.90
51661;DHT22;37741;49.748;8.490;2024-02-21T08:29:07;7.90;89.90
51661;DHT22;37741;49.748;8.490;2024-02-21T08:31:33;7.90;89.80
51661;DHT22;37741;49.748;8.490;2024-02-21T08:33:59;7.90;89.80
51661;DHT22;37741;49.748;8.490;2024-02-21T08:36:31;7.90;89.90
51661;DHT22;37741;49.748;8.490;2024-02-21T08:38:58;7.80;89.80
51661;DHT22;37741;49.748;8.490;2024-02-21T08:41:24;7.90;89.80
51661;DHT22;37741;49.748;8.490;2024-02-21T08:43:54;7.90;89.80
51661;DHT22;37741;49.748;8.490;2024-02-21T08:46:22;7.90;89.90
51661;DHT22;37741;49.748;8.490;2024-02-21T08:48:50;7.90;89.90
51661;DHT22;37741;49.748;8.490;2024-02-21T08:51:17;7.90;89.90
51661;DHT22;37741;49.748;8.490;2024-02-21T08:53:44;7.90;89.90
51661;DHT22;37741;49.748;8.490;2024-02-21T08:56:10;7.90;89.90
51661;DHT22;37741;49.748;8.490;2024-02-21T08:58:39;7.90;89.80
51661;DHT22;37741;49.748;8.490;2024-02-21T09:01:06;7.90;89.90
51661;DHT22;37741;49.748;8.490;2024-02-21T09:03:36;7.90;89.80
51661;DHT22;37741;49.748;8.490;2024-02-21T09:06:03;7.90;89.80
51661;DHT22;37741;49.748;8.490;2024-02-21T09:08:29;7.90;89.80
51661;DHT22;37741;49.748;8.490;2024-02-21T09:10:55;7.90;89.90
51661;DHT22;37741;49.748;8.490;2024-02-21T09:13:21;7.90;89.90
51661;DHT22;37741;49.748;8.490;2024-02-21T09:15:49;8.00;90.00
51661;DHT22;37741;49.748;8.490;2024-02-21T09:18:15;8.00;90.00
51661;DHT22;37741;49.748;8.490;2024-02-21T09:20:42;7.90;90.00
51661;DHT22;37741;49.748;8.490;2024-02-21T09:23:08;8.00;90.00
51661;DHT22;37741;49.748;8.490;2024-02-21T09:25:33;8.00;90.00
51661;DHT22;37741;49.748;8.490;2024-02-21T09:28:00;8.00;90.00
51661;DHT22;37741;49.748;8.490;2024-02-21T09:30:26;8.00;90.00
51661;DHT22;37741;49.748;8.490;2024-02-21T09:32:52;8.00;90.00
51661;DHT22;37741;49.748;8.490;2024-02-21T09:35:18;8.00;89.90
51661;DHT22;37741;49.748;8.490;2024-02-21T09:37:44;8.10;89.90
51661;DHT22;37741;49.748;8.490;2024-02-21T09:40:10;8.10;89.80
51661;DHT22;37741;49.748;8.490;2024-02-21T09:42:38;8.10;89.70
51661;DHT22;37741;49.748;8.490;2024-02-21T09:45:10;8.10;89.70
51661;DHT22;37741;49.748;8.490;2024-02-21T09:50:29;8.20;89.80
51661;DHT22;37741;49.748;8.490;2024-02-21T09:52:57;8.20;89.80
51661;DHT22;37741;49.748;8.490;2024-02-21T09:55:25;8.20;89.70
51661;DHT22;37741;49.748;8.490;2024-02-21T09:57:53;8.20;89.70
51661;DHT22;37741;49.748;8.490;2024-02-21T10:00:19;8.20;89.80
51661;DHT22;37741;49.748;8.490;2024-02-21T10:02:55;8.20;89.60
51661;DHT22;37741;49.748;8.490;2024-02-21T10:05:47;8.30;89.70
51661;DHT22;37741;49.748;8.490;2024-02-21T10:08:15;8.30;89.60
51661;DHT22;37741;49.748;8.490;2024-02-21T10:10:49;8.30;89.60
51661;DHT22;37741;49.748;8.490;2024-02-21T10:13:39;8.30;89.50
51661;DHT22;37741;49.748;8.490;2024-02-21T10:16:16;8.30;89.60
51661;DHT22;37741;49.748;8.490;2024-02-21T10:18:47;8.30;89.50
51661;DHT22;37741;49.748;8.490;2024-02-21T10:21:20;8.30;89.40
51661;DHT22;37741;49.748;8.490;2024-02-21T10:23:55;8.30;89.40
51661;DHT22;37741;49.748;8.490;2024-02-21T10:26:21;8.40;89.40
51661;DHT22;37741;49.748;8.490;2024-02-21T10:28:50;8.40;89.40
51661;DHT22;37741;49.748;8.490;2024-02-21T10:31:24;8.40;89.30
51661;DHT22;37741;49.748;8.490;2024-02-21T10:34:02;8.40;89.20
51661;DHT22;37741;49.748;8.490;2024-02-21T10:36:31;8.40;89.10
51661;DHT22;37741;49.748;8.490;2024-02-21T10:38:57;8.50;89.20
51661;DHT22;37741;49.748;8.490;2024-02-21T10:41:23;8.50;89.00
51661;DHT22;37741;49.748;8.490;2024-02-21T10:43:54;8.50;88.90
51661;DHT22;37741;49.748;8.490;2024-02-21T10:46:21;8.50;88.80
51661;DHT22;37741;49.748;8.490;2024-02-21T10:48:51;8.50;88.90
51661;DHT22;37741;49.748;8.490;2024-02-21T10:51:27;8.60;88.90
51661;DHT22;37741;49.748;8.490;2024-02-21T10:54:02;8.60;88.80
51661;DHT22;37741;49.748;8.490;2024-02-21T10:56:35;8.60;89.40
51661;DHT22;37741;49.748;8.490;2024-02-21T10:59:05;8.60;88.70
51661;DHT22;37741;49.748;8.490;2024-02-21T11:01:32;8.70;88.80
51661;DHT22;37741;49.748;8.490;2024-02-21T11:04:07;8.70;88.70
51661;DHT22;37741;49.748;8.490;2024-02-21T11:06:34;8.70;88.80
51661;DHT22;37741;49.748;8.490;2024-02-21T11:09:05;8.70;88.80
51661;DHT22;37741;49.748;8.490;2024-02-21T11:11:38;8.70;88.90
51661;DHT22;37741;49.748;8.490;2024-02-21T11:14:30;8.70;88.80
51661;DHT22;37741;49.748;8.490;2024-02-21T11:17:02;8.80;88.80
51661;DHT22;37741;49.748;8.490;2024-02-21T11:19:29;8.80;88.70
51661;DHT22;37741;49.748;8.490;2024-02-21T11:21:57;8.80;88.50
51661;DHT22;37741;49.748;8.490;2024-02-21T11:24:33;8.90;88.60
51661;DHT22;37741;49.748;8.490;2024-02-21T11:27:21;8.90;88.50
51661;DHT22;37741;49.748;8.490;2024-02-21T11:29:49;8.90;88.50
51661;DHT22;37741;49.748;8.490;2024-02-21T11:32:17;8.90;88.50
51661;DHT22;37741;49.748;8.490;2024-02-21T11:34:54;9.00;88.50
51661;DHT22;37741;49.748;8.490;2024-02-21T11:37:20;9.00;88.40
51661;DHT22;37741;49.748;8.490;2024-02-21T11:39:46;9.00;88.40
51661;DHT22;37741;49.748;8.490;2024-02-21T11:42:11;9.10;88.30
51661;DHT22;37741;49.748;8.490;2024-02-21T11:44:38;9.10;88.30
51661;DHT22;37741;49.748;8.490;2024-02-21T11:47:05;9.10;88.20
51661;DHT22;37741;49.748;8.490;2024-02-21T11:49:36;9.10;88.10
51661;DHT22;37741;49.748;8.490;2024-02-21T11:52:03;9.10;88.00
51661;DHT22;37741;49.748;8.490;2024-02-21T11:54:33;9.20;87.90
51661;DHT22;37741;49.748;8.490;2024-02-21T11:56:59;9.20;88.40
51661;DHT22;37741;49.748;8.490;2024-02-21T11:59:25;9.20;87.70
51661;DHT22;37741;49.748;8.490;2024-02-21T12:01:52;9.20;87.50
51661;DHT22;37741;49.748;8.490;2024-02-21T12:04:21;9.30;87.60
51661;DHT22;37741;49.748;8.490;2024-02-21T12:06:49;9.30;87.50
51661;DHT22;37741;49.748;8.490;2024-02-21T12:09:16;9.30;87.50
51661;DHT22;37741;49.748;8.490;2024-02-21T12:11:42;9.40;87.50
51661;DHT22;37741;49.748;8.490;2024-02-21T12:14:07;9.40;87.50
51661;DHT22;37741;49.748;8.490;2024-02-21T12:16:34;9.40;87.50
51661;DHT22;37741;49.748;8.490;2024-02-21T12:19:02;9.40;87.40
51661;DHT22;37741;49.748;8.490;2024-02-21T12:21:33;9.50;87.30
51661;DHT22;37741;49.748;8.490;2024-02-21T12:24:21;9.50;87.30
51661;DHT22;37741;49.748;8.490;2024-02-21T12:26:47;9.50;87.20
51661;DHT22;37741;49.748;8.490;2024-02-21T12:29:13;9.60;87.30
51661;DHT22;37741;49.748;8.490;2024-02-21T12:31:39;9.60;87.20
51661;DHT22;37741;49.748;8.490;2024-02-21T12:34:05;9.60;87.00
51661;DHT22;37741;49.748;8.490;2024-02-21T12:36:31;9.60;86.90
51661;DHT22;37741;49.748;8.490;2024-02-21T12:38:57;9.70;86.80
51661;DHT22;37741;49.748;8.490;2024-02-21T12:41:23;9.70;86.80
51661;DHT22;37741;49.748;8.490;2024-02-21T12:43:51;9.70;86.70
51661;DHT22;37741;49.748;8.490;2024-02-21T12:46:16;9.70;86.60
51661;DHT22;37741;49.748;8.490;2024-02-21T12:48:42;9.80;86.50
51661;DHT22;37741;49.748;8.490;2024-02-21T12:51:08;9.80;86.30
51661;DHT22;37741;49.748;8.490;2024-02-21T12:53:33;9.80;86.20
51661;DHT22;37741;49.748;8.490;2024-02-21T12:56:00;9.80;86.30
51661;DHT22;37741;49.748;8.490;2024-02-21T12:58:25;9.80;86.30
51661;DHT22;37741;49.748;8.490;2024-02-21T13:00:51;9.90;86.40
51661;DHT22;37741;49.748;8.490;2024-02-21T13:03:17;9.90;86.10
51661;DHT22;37741;49.748;8.490;2024-02-21T13:05:42;9.90;86.00
51661;DHT22;37741;49.748;8.490;2024-02-21T13:08:09;9.90;86.00
51661;DHT22;37741;49.748;8.490;2024-02-21T13:10:34;9.90;85.90
51661;DHT22;37741;49.748;8.490;2024-02-21T13:13:03;10.00;85.80
51661;DHT22;37741;49.748;8.490;2024-02-21T13:15:29;10.00;85.70
51661;DHT22;37741;49.748;8.490;2024-02-21T13:17:58;10.00;85.00
51661;DHT22;37741;49.748;8.490;2024-02-21T13:20:27;10.00;85.10
51661;DHT22;37741;49.748;8.490;2024-02-21T13:22:54;10.00;85.10
51661;DHT22;37741;49.748;8.490;2024-02-21T13:25:19;10.10;85.00
51661;DHT22;37741;49.748;8.490;2024-02-21T13:27:47;10.10;85.00
51661;DHT22;37741;49.748;8.490;2024-02-21T13:30:13;10.10;84.70
51661;DHT22;37741;49.748;8.490;2024-02-21T13:32:41;10.10;84.50
51661;DHT22;37741;49.748;8.490;2024-02-21T13:35:08;10.10;84.70
51661;DHT22;37741;49.748;8.490;2024-02-21T13:37:34;10.20;84.50
51661;DHT22;37741;49.748;8.490;2024-02-21T13:40:00;10.20;84.60
51661;DHT22;37741;49.748;8.490;2024-02-21T13:42:25;10.20;84.70
51661;DHT22;37741;49.748;8.490;2024-02-21T13:44:53;10.20;84.60
51661;DHT22;37741;49.748;8.490;2024-02-21T13:47:19;10.20;84.40
51661;DHT22;37741;49.748;8.490;2024-02-21T13:49:44;10.20;84.20
51661;DHT22;37741;49.748;8.490;2024-02-21T13:52:10;10.30;84.60
51661;DHT22;37741;49.748;8.490;2024-02-21T13:58:00;10.30;84.00
51661;DHT22;37741;49.748;8.490;2024-02-21T14:00:26;10.30;83.90
51661;DHT22;37741;49.748;8.490;2024-02-21T14:02:52;10.30;83.80
51661;DHT22;37741;49.748;8.490;2024-02-21T14:05:20;10.30;83.70
51661;DHT22;37741;49.748;8.490;2024-02-21T14:07:45;10.40;83.70
51661;DHT22;37741;49.748;8.490;2024-02-21T14:10:11;10.40;83.20
51661;DHT22;37741;49.748;8.490;2024-02-21T14:12:37;10.40;83.40
51661;DHT22;37741;49.748;8.490;2024-02-21T14:15:04;10.40;83.60
51661;DHT22;37741;49.748;8.490;2024-02-21T14:17:30;10.40;83.70
51661;DHT22;37741;49.748;8.490;2024-02-21T14:19:56;10.40;84.00
51661;DHT22;37741;49.748;8.490;2024-02-21T14:22:21;10.40;83.50
51661;DHT22;37741;49.748;8.490;2024-02-21T14:24:47;10.50;83.50
51661;DHT22;37741;49.748;8.490;2024-02-21T14:27:13;10.50;83.60
51661;DHT22;37741;49.748;8.490;2024-02-21T14:29:39;10.50;83.50
51661;DHT22;37741;49.748;8.490;2024-02-21T14:32:05;10.50;83.60
51661;DHT22;37741;49.748;8.490;2024-02-21T14:34:31;10.50;83.70
51661;DHT22;37741;49.748;8.490;2024-02-21T14:36:56;10.50;84.00
51661;DHT22;37741;49.748;8.490;2024-02-21T14:39:22;10.50;84.00
51661;DHT22;37741;49.748;8.490;2024-02-21T14:41:48;10.50;83.90
51661;DHT22;37741;49.748;8.490;2024-02-21T14:44:14;10.50;83.90
51661;DHT22;37741;49.748;8.490;2024-02-21T14:46:39;10.60;83.80
51661;DHT22;37741;49.748;8.490;2024-02-21T14:49:05;10.60;83.70
51661;DHT22;37741;49.748;8.490;2024-02-21T14:51:31;10.60;83.70
51661;DHT22;37741;49.748;8.490;2024-02-21T14:53:56;10.60;83.50
51661;DHT22;37741;49.748;8.490;2024-02-21T14:56:22;10.60;83.40
51661;DHT22;37741;49.748;8.490;2024-02-21T14:58:49;10.60;83.00
51661;DHT22;37741;49.748;8.490;2024-02-21T15:01:15;10.60;82.90
51661;DHT22;37741;49.748;8.490;2024-02-21T15:03:43;10.60;83.10
51661;DHT22;37741;49.748;8.490;2024-02-21T15:06:09;10.70;82.70
51661;DHT22;37741;49.748;8.490;2024-02-21T15:08:34;10.60;82.50
51661;DHT22;37741;49.748;8.490;2024-02-21T15:11:01;10.70;82.40
51661;DHT22;37741;49.748;8.490;2024-02-21T15:13:28;10.70;82.70
51661;DHT22;37741;49.748;8.490;2024-02-21T15:15:55;10.70;82.70
51661;DHT22;37741;49.748;8.490;2024-02-21T15:18:21;10.70;82.70
51661;DHT22;37741;49.748;8.490;2024-02-21T15:20:47;10.70;82.80
51661;DHT22;37741;49.748;8.490;2024-02-21T15:23:13;10.70;83.00
51661;DHT22;37741;49.748;8.490;2024-02-21T15:25:41;10.70;82.50
51661;DHT22;37741;49.748;8.490;2024-02-21T15:28:08;10.70;82.30
51661;DHT22;37741;49.748;8.490;2024-02-21T15:30:34;10.70;82.40
51661;DHT22;37741;49.748;8.490;2024-02-21T15:33:03;10.70;82.40
51661;DHT22;37741;49.748;8.490;2024-02-21T15:35:30;10.70;82.40
51661;DHT22;37741;49.748;8.490;2024-02-21T15:37:58;10.70;82.70
51661;DHT22;37741;49.748;8.490;2024-02-21T15:40:24;10.70;82.60
51661;DHT22;37741;49.748;8.490;2024-02-21T15:43:01;10.70;82.50
51661;DHT22;37741;49.748;8.490;2024-02-21T15:45:36;10.70;82.70
51661;DHT22;37741;49.748;8.490;2024-02-21T15:48:01;10.70;82.70
51661;DHT22;37741;49.748;8.490;2024-02-21T15:50:28;10.70;82.60